Time;durP1;ratioP1;P1;durP2;ratioP2;P2;SDS_P1;SDS_P2;PMS_P1;PMS_P2;Temp;Humidity;BMP_temperature;BMP_pressure;BME280_temperature;BME280_humidity;BME280_pressure;Samples;Min_cycle;Max_cycle;Signal;HPM_P1;HPM_P2
2021/04/25 00:01:25;;;;;;;14.60;13.10;;;5.10;99.90;;;;;;5021625;28;20472;-71
2021/04/25 00:03:52;;;;;;;14.50;13.10;;;5.10;99.90;;;;;;5022344;28;20462;-73
2021/04/25 00:06:18;;;;;;;16.23;14.50;;;5.00;99.90;;;;;;5018482;28;20468;-73
2021/04/25 00:08:47;;;;;;;14.13;12.90;;;4.90;99.90;;;;;;5018347;28;21013;-72
2021/04/25 00:11:15;;;;;;;14.03;12.77;;;4.90;99.90;;;;;;5019192;28;20466;-71
2021/04/25 00:13:43;;;;;;;14.23;12.90;;;4.90;99.90;;;;;;5022755;28;20474;-72
2021/04/25 00:16:10;;;;;;;14.70;13.50;;;4.80;99.90;;;;;;5015077;28;20553;-72
2021/04/25 00:18:36;;;;;;;21.30;13.53;;;4.70;99.90;;;;;;5016272;28;20914;-72
2021/04/25 00:21:03;;;;;;;14.77;13.47;;;4.60;99.90;;;;;;5022993;28;20464;-72
2021/04/25 00:23:30;;;;;;;14.40;13.10;;;4.70;99.90;;;;;;5018434;28;20465;-71
2021/04/25 00:25:57;;;;;;;14.67;13.37;;;4.70;99.90;;;;;;5018631;28;20466;-72
2021/04/25 00:28:24;;;;;;;15.60;14.27;;;4.70;99.90;;;;;;5012789;28;20469;-71
2021/04/25 00:30:50;;;;;;;16.20;14.60;;;4.70;99.90;;;;;;5019472;28;20540;-71
2021/04/25 00:33:19;;;;;;;15.33;13.83;;;4.60;99.90;;;;;;5022826;28;20484;-72
2021/04/25 00:35:45;;;;;;;15.17;13.20;;;4.50;99.90;;;;;;5021207;28;20465;-70
2021/04/25 00:38:12;;;;;;;16.27;14.77;;;4.50;99.90;;;;;;5019610;28;20606;-71
2021/04/25 00:40:38;;;;;;;16.27;13.53;;;4.40;99.90;;;;;;5020179;28;20460;-70
2021/04/25 00:43:05;;;;;;;16.27;14.77;;;4.40;99.90;;;;;;5025149;28;20462;-70
2021/04/25 00:45:32;;;;;;;15.13;13.77;;;4.40;99.90;;;;;;5028748;28;20830;-72
2021/04/25 00:47:58;;;;;;;15.20;13.30;;;4.40;99.90;;;;;;5025847;28;20460;-70
2021/04/25 00:50:27;;;;;;;14.07;12.87;;;4.30;99.90;;;;;;5022320;28;20464;-72
2021/04/25 00:52:57;;;;;;;15.47;13.83;;;4.20;99.90;;;;;;5018952;28;20467;-72
2021/04/25 00:55:26;;;;;;;15.33;13.90;;;4.20;99.90;;;;;;5022763;28;20468;-73
2021/04/25 00:57:54;;;;;;;16.63;13.93;;;4.20;99.90;;;;;;5027842;28;20496;-70
2021/04/25 01:00:22;;;;;;;15.87;14.17;;;4.10;99.90;;;;;;5023907;28;20469;-72
2021/04/25 01:02:48;;;;;;;15.13;13.57;;;4.20;99.90;;;;;;5021523;28;20488;-72
2021/04/25 01:05:18;;;;;;;14.27;13.07;;;4.10;99.90;;;;;;5023817;28;20830;-71
2021/04/25 01:07:44;;;;;;;15.60;13.97;;;4.10;99.90;;;;;;5025879;28;20465;-72
2021/04/25 01:10:12;;;;;;;23.63;14.53;;;4.00;99.90;;;;;;5026832;28;21055;-72
2021/04/25 01:12:39;;;;;;;15.07;13.10;;;4.00;99.90;;;;;;5024711;28;20452;-72
2021/04/25 01:15:09;;;;;;;14.33;12.93;;;4.00;99.90;;;;;;5025055;28;20460;-73
2021/04/25 01:17:39;;;;;;;16.60;13.07;;;3.90;99.90;;;;;;5024374;28;20487;-72
2021/04/25 01:20:09;;;;;;;15.10;13.60;;;4.00;99.90;;;;;;5022262;28;21263;-72
2021/04/25 01:22:37;;;;;;;16.57;13.53;;;3.90;99.90;;;;;;5018877;28;20534;-71
2021/04/25 01:25:05;;;;;;;16.17;13.73;;;3.70;99.90;;;;;;5021941;28;20472;-72
2021/04/25 01:27:31;;;;;;;15.43;13.90;;;3.70;99.90;;;;;;5025968;28;20471;-71
2021/04/25 01:29:58;;;;;;;24.73;13.70;;;3.70;99.90;;;;;;5024927;28;20475;-70
2021/04/25 01:32:25;;;;;;;12.93;11.73;;;3.70;99.90;;;;;;5017668;28;20488;-71
2021/04/25 01:34:52;;;;;;;15.40;13.77;;;3.70;99.90;;;;;;5019550;28;20828;-72
2021/04/25 01:37:19;;;;;;;15.30;13.40;;;3.60;99.90;;;;;;5025156;28;20716;-71
2021/04/25 01:39:46;;;;;;;18.90;12.60;;;3.60;99.90;;;;;;5024806;28;20456;-72
2021/04/25 01:42:13;;;;;;;18.67;13.17;;;3.60;99.90;;;;;;5018006;28;20498;-70
2021/04/25 01:44:39;;;;;;;18.37;12.00;;;3.60;99.90;;;;;;5019945;28;20527;-71
2021/04/25 01:47:05;;;;;;;14.30;12.80;;;3.60;99.90;;;;;;5019218;28;20465;-71
2021/04/25 01:49:32;;;;;;;16.93;13.10;;;3.60;99.90;;;;;;5017451;28;20963;-71
2021/04/25 01:51:58;;;;;;;14.07;12.77;;;3.60;99.90;;;;;;5024906;28;20865;-71
2021/04/25 01:54:25;;;;;;;13.93;12.43;;;3.50;99.90;;;;;;5017586;28;20485;-73
2021/04/25 01:56:52;;;;;;;16.00;13.80;;;3.40;99.90;;;;;;5023471;28;20484;-70
2021/04/25 01:59:18;;;;;;;14.07;12.67;;;3.40;99.90;;;;;;5020673;28;20626;-72
2021/04/25 02:01:45;;;;;;;15.80;13.77;;;3.40;99.90;;;;;;5021070;28;20465;-71
2021/04/25 02:04:13;;;;;;;14.07;12.63;;;3.40;99.90;;;;;;5020701;28;20466;-71
2021/04/25 02:06:42;;;;;;;17.13;13.17;;;3.40;99.90;;;;;;5022022;28;20981;-71
2021/04/25 02:09:09;;;;;;;17.40;13.87;;;3.40;99.90;;;;;;5020972;28;20481;-73
2021/04/25 02:11:36;;;;;;;14.80;13.30;;;3.40;99.90;;;;;;5012559;28;20981;-71
2021/04/25 02:14:04;;;;;;;12.73;11.40;;;3.30;99.90;;;;;;5023493;28;20495;-72
2021/04/25 02:16:30;;;;;;;19.97;14.40;;;3.30;99.90;;;;;;5023602;28;20822;-73
2021/04/25 02:18:59;;;;;;;15.50;14.00;;;3.30;99.90;;;;;;5024451;28;20479;-73
2021/04/25 02:21:25;;;;;;;17.40;13.40;;;3.30;99.90;;;;;;5024298;28;20493;-72
2021/04/25 02:23:54;;;;;;;15.87;13.23;;;3.30;99.90;;;;;;5016778;28;21033;-70
2021/04/25 02:26:20;;;;;;;14.73;12.60;;;3.30;99.90;;;;;;5024013;28;20748;-70
2021/04/25 02:28:48;;;;;;;18.03;13.30;;;3.30;99.90;;;;;;5020847;28;20460;-71
2021/04/25 02:31:16;;;;;;;19.20;12.60;;;3.20;99.90;;;;;;5019239;28;20487;-71
2021/04/25 02:33:43;;;;;;;16.10;13.53;;;3.20;99.90;;;;;;5022566;28;21004;-71
2021/04/25 02:36:10;;;;;;;15.90;13.80;;;3.20;99.90;;;;;;5024984;28;20597;-73
2021/04/25 02:38:37;;;;;;;14.63;11.87;;;3.20;99.90;;;;;;5018992;28;20526;-70
2021/04/25 02:41:03;;;;;;;20.27;13.40;;;3.20;99.90;;;;;;5017682;28;20461;-72
2021/04/25 02:43:30;;;;;;;15.77;12.73;;;3.10;99.90;;;;;;5020862;28;20466;-70
2021/04/25 02:45:57;;;;;;;19.30;14.40;;;3.20;99.90;;;;;;5020765;28;20474;-71
2021/04/25 02:48:24;;;;;;;15.17;13.67;;;3.20;99.90;;;;;;5015679;28;21021;-70
2021/04/25 02:50:52;;;;;;;14.53;13.00;;;3.10;99.90;;;;;;5021207;28;20465;-72
2021/04/25 02:53:18;;;;;;;14.03;12.63;;;3.10;99.90;;;;;;5025730;28;20522;-71
2021/04/25 02:55:44;;;;;;;14.50;13.00;;;3.00;99.90;;;;;;5016345;28;20469;-71
2021/04/25 02:58:11;;;;;;;17.77;14.10;;;3.10;99.90;;;;;;5016296;28;20485;-73
2021/04/25 03:00:38;;;;;;;17.17;14.77;;;3.00;99.90;;;;;;5022243;28;20979;-73
2021/04/25 03:03:04;;;;;;;16.77;14.63;;;3.00;99.90;;;;;;5023069;28;20467;-72
2021/04/25 03:05:31;;;;;;;18.50;13.60;;;2.90;99.90;;;;;;5024574;28;20819;-72
2021/04/25 03:07:58;;;;;;;18.33;14.63;;;2.80;99.90;;;;;;5020839;28;20983;-69
2021/04/25 03:10:26;;;;;;;15.13;13.60;;;2.80;99.90;;;;;;5024180;28;20488;-71
2021/04/25 03:12:53;;;;;;;15.20;13.70;;;2.80;99.90;;;;;;5019491;28;20814;-73
2021/04/25 03:15:21;;;;;;;15.83;14.27;;;2.80;99.90;;;;;;5022117;28;20560;-72
2021/04/25 03:17:48;;;;;;;19.60;16.00;;;2.70;99.90;;;;;;5018363;28;20490;-72
2021/04/25 03:20:17;;;;;;;22.40;14.43;;;2.70;99.90;;;;;;5020463;28;20460;-72
2021/04/25 03:22:45;;;;;;;19.27;13.93;;;2.60;99.90;;;;;;5024775;28;20460;-71
2021/04/25 03:25:12;;;;;;;15.53;13.40;;;2.70;99.90;;;;;;5016715;28;20482;-72
2021/04/25 03:27:42;;;;;;;15.93;14.20;;;2.70;99.90;;;;;;5016474;28;20494;-71
2021/04/25 03:30:11;;;;;;;16.70;14.00;;;2.70;99.90;;;;;;5022001;28;20456;-71
2021/04/25 03:32:38;;;;;;;15.50;13.60;;;2.60;99.90;;;;;;5024285;28;21012;-72
2021/04/25 03:35:06;;;;;;;15.53;13.47;;;2.60;99.90;;;;;;5023296;28;20456;-72
2021/04/25 03:37:32;;;;;;;18.50;13.83;;;2.60;99.90;;;;;;5018307;28;20481;-74
2021/04/25 03:40:00;;;;;;;17.93;12.93;;;2.50;99.90;;;;;;5020381;28;20539;-74
2021/04/25 03:42:27;;;;;;;14.90;13.37;;;2.50;99.90;;;;;;5020038;28;20489;-74
2021/04/25 03:44:55;;;;;;;14.90;13.40;;;2.40;99.90;;;;;;5021305;28;20782;-72
2021/04/25 03:47:22;;;;;;;19.80;14.43;;;2.40;99.90;;;;;;5022487;28;20472;-71
2021/04/25 03:49:49;;;;;;;22.73;15.70;;;2.40;99.90;;;;;;5021902;28;20490;-73
2021/04/25 03:52:15;;;;;;;20.43;14.00;;;2.40;99.90;;;;;;5017649;28;20465;-74
2021/04/25 03:54:42;;;;;;;17.10;13.37;;;2.30;99.90;;;;;;5016989;28;20476;-74
2021/04/25 03:57:09;;;;;;;17.83;15.90;;;2.30;99.90;;;;;;5018439;28;20499;-74
2021/04/25 03:59:36;;;;;;;19.10;14.77;;;2.30;99.90;;;;;;5023250;28;20472;-72
2021/04/25 04:02:03;;;;;;;18.57;16.27;;;2.30;99.90;;;;;;5023389;28;20456;-72
2021/04/25 04:04:29;;;;;;;20.03;15.10;;;2.20;99.90;;;;;;5017518;28;20461;-73
2021/04/25 04:06:55;;;;;;;20.40;15.57;;;2.10;99.90;;;;;;5024299;28;20471;-74
2021/04/25 04:09:22;;;;;;;21.43;14.43;;;2.20;99.90;;;;;;5018981;28;20861;-75
2021/04/25 04:11:49;;;;;;;22.47;15.23;;;2.20;99.90;;;;;;5021495;28;20467;-71
2021/04/25 04:14:16;;;;;;;22.60;14.77;;;2.10;99.90;;;;;;5024517;28;20468;-71
2021/04/25 04:16:43;;;;;;;28.80;15.53;;;1.90;99.90;;;;;;5024807;28;20978;-71
2021/04/25 04:19:10;;;;;;;18.67;16.63;;;1.80;99.90;;;;;;5019123;28;20459;-74
2021/04/25 04:21:37;;;;;;;19.80;16.00;;;1.80;99.90;;;;;;5020283;28;20556;-74
2021/04/25 04:24:04;;;;;;;23.53;17.73;;;1.70;99.90;;;;;;5018760;28;20464;-72
2021/04/25 04:26:31;;;;;;;18.97;16.60;;;1.80;99.90;;;;;;5022792;28;20540;-74
2021/04/25 04:28:57;;;;;;;18.70;15.83;;;1.90;99.90;;;;;;5025041;28;20468;-75
2021/04/25 04:31:24;;;;;;;18.97;17.07;;;1.90;99.90;;;;;;5021952;28;20483;-70
2021/04/25 04:33:50;;;;;;;21.53;16.90;;;1.90;99.90;;;;;;5018853;28;20557;-70
2021/04/25 04:36:17;;;;;;;18.60;16.70;;;2.00;99.90;;;;;;5016265;28;20464;-70
2021/04/25 04:38:43;;;;;;;22.40;17.60;;;2.00;99.90;;;;;;5021955;28;20891;-72
2021/04/25 04:41:10;;;;;;;18.37;16.57;;;2.10;99.90;;;;;;5021524;28;20463;-70
2021/04/25 04:43:37;;;;;;;21.63;18.50;;;2.20;99.90;;;;;;5021727;28;20483;-70
2021/04/25 04:46:03;;;;;;;18.20;16.60;;;2.30;99.90;;;;;;5017421;28;21018;-70
2021/04/25 04:48:30;;;;;;;19.20;17.27;;;2.30;99.90;;;;;;5021569;28;20468;-74
2021/04/25 04:50:57;;;;;;;20.30;17.60;;;2.50;99.90;;;;;;5017396;28;20872;-74
2021/04/25 04:53:24;;;;;;;22.30;18.73;;;2.60;99.90;;;;;;5017399;28;20461;-71
2021/04/25 04:55:50;;;;;;;21.13;18.27;;;2.80;99.90;;;;;;5015885;28;20486;-70
2021/04/25 04:58:17;;;;;;;20.37;18.17;;;3.00;99.90;;;;;;5023226;28;20522;-70
2021/04/25 05:00:44;;;;;;;20.60;18.50;;;3.00;99.90;;;;;;5019597;28;20472;-69
2021/04/25 05:03:12;;;;;;;19.80;17.87;;;3.00;99.90;;;;;;5021084;28;20460;-70
2021/04/25 05:05:39;;;;;;;19.97;17.10;;;3.00;99.90;;;;;;5023500;28;20467;-72
2021/04/25 05:08:07;;;;;;;19.80;17.90;;;3.00;99.90;;;;;;5016460;28;20512;-73
2021/04/25 05:10:34;;;;;;;24.00;18.07;;;3.10;99.90;;;;;;5025292;28;20471;-71
2021/04/25 05:13:01;;;;;;;22.20;18.73;;;3.20;99.90;;;;;;5020218;28;20810;-70
2021/04/25 05:15:27;;;;;;;18.77;16.90;;;3.20;99.90;;;;;;5019482;28;20467;-70
2021/04/25 05:17:54;;;;;;;19.27;17.27;;;3.30;99.90;;;;;;5022457;28;20499;-73
2021/04/25 05:20:21;;;;;;;19.67;17.63;;;3.40;99.90;;;;;;5019688;28;20469;-71
2021/04/25 05:22:49;;;;;;;19.70;17.70;;;3.50;99.90;;;;;;5022841;28;20471;-71
2021/04/25 05:25:15;;;;;;;23.80;19.50;;;3.60;99.90;;;;;;5020147;28;20484;-71
2021/04/25 05:27:44;;;;;;;23.37;17.17;;;3.70;99.90;;;;;;5024015;28;20464;-72
2021/04/25 05:30:12;;;;;;;21.47;17.57;;;3.80;99.90;;;;;;5020835;28;20465;-71
2021/04/25 05:32:39;;;;;;;22.67;17.63;;;4.00;99.90;;;;;;5018125;28;20491;-74
2021/04/25 05:35:06;;;;;;;20.03;18.03;;;4.20;99.90;;;;;;5013607;28;20484;-70
2021/04/25 05:37:32;;;;;;;20.17;17.33;;;4.40;99.90;;;;;;5024643;28;20552;-70
2021/04/25 05:39:59;;;;;;;16.90;15.20;;;4.60;99.90;;;;;;5023234;28;20848;-70
2021/04/25 05:42:26;;;;;;;18.43;16.00;;;4.70;99.90;;;;;;5022153;28;20461;-72
2021/04/25 05:44:54;;;;;;;20.97;17.77;;;4.90;99.90;;;;;;5021855;28;20476;-72
2021/04/25 05:47:21;;;;;;;21.00;16.90;;;5.10;99.90;;;;;;5022685;28;20460;-72
2021/04/25 05:49:48;;;;;;;18.63;16.73;;;5.40;99.90;;;;;;5024268;28;20457;-73
2021/04/25 05:52:15;;;;;;;17.53;15.83;;;5.50;99.90;;;;;;5021863;28;21133;-70
2021/04/25 05:54:42;;;;;;;19.60;17.53;;;5.60;99.90;;;;;;5025173;28;20504;-71
2021/04/25 05:57:09;;;;;;;20.67;16.80;;;5.70;99.90;;;;;;5018736;28;20485;-72
2021/04/25 05:59:36;;;;;;;24.07;16.40;;;5.90;99.90;;;;;;5020847;28;20469;-70
2021/04/25 06:02:04;;;;;;;20.30;18.17;;;6.00;99.90;;;;;;5021484;28;20473;-71
2021/04/25 06:04:30;;;;;;;20.50;17.00;;;6.20;99.90;;;;;;5019222;28;20493;-72
2021/04/25 06:06:56;;;;;;;20.87;18.50;;;6.20;99.90;;;;;;5021302;28;20472;-73
2021/04/25 06:09:24;;;;;;;21.57;18.07;;;6.40;99.90;;;;;;5024336;28;20507;-72
2021/04/25 06:11:50;;;;;;;19.83;18.13;;;6.20;99.90;;;;;;5025195;28;20552;-72
2021/04/25 06:14:18;;;;;;;24.30;20.83;;;6.10;99.90;;;;;;5023097;28;20968;-71
2021/04/25 06:16:44;;;;;;;22.93;20.60;;;6.00;99.90;;;;;;5019803;28;20548;-70
2021/04/25 06:19:12;;;;;;;22.57;20.03;;;6.10;99.90;;;;;;5024796;28;20472;-71
2021/04/25 06:21:38;;;;;;;23.20;20.70;;;6.50;99.90;;;;;;5026361;28;20461;-72
2021/04/25 06:24:06;;;;;;;30.47;19.70;;;6.70;99.90;;;;;;5021507;28;20468;-70
2021/04/25 06:26:32;;;;;;;21.03;19.03;;;6.70;99.90;;;;;;5018137;28;20473;-70
2021/04/25 06:28:59;;;;;;;21.00;18.90;;;6.60;99.90;;;;;;5025006;28;20903;-70
2021/04/25 06:31:27;;;;;;;21.47;19.10;;;6.50;99.90;;;;;;5026308;28;20461;-71
2021/04/25 06:33:53;;;;;;;20.43;18.47;;;6.60;99.90;;;;;;5020896;28;20874;-72
2021/04/25 06:36:20;;;;;;;21.63;19.23;;;6.70;99.90;;;;;;5023670;28;20515;-71
2021/04/25 06:38:46;;;;;;;17.83;16.03;;;6.90;99.90;;;;;;5019821;28;20581;-72
2021/04/25 06:41:12;;;;;;;18.13;16.83;;;6.50;99.90;;;;;;5022797;28;20465;-72
2021/04/25 06:43:38;;;;;;;19.00;17.30;;;6.50;99.90;;;;;;5021937;28;20840;-74
2021/04/25 06:46:05;;;;;;;19.50;17.67;;;6.80;99.90;;;;;;5022004;28;20466;-72
2021/04/25 06:48:32;;;;;;;18.37;16.83;;;6.70;99.90;;;;;;5018704;28;20523;-71
2021/04/25 06:50:58;;;;;;;18.97;17.07;;;6.70;99.90;;;;;;5023239;28;20452;-72
2021/04/25 06:53:25;;;;;;;20.17;18.47;;;6.60;99.90;;;;;;5017563;28;20461;-73
2021/04/25 06:55:51;;;;;;;20.90;18.80;;;6.90;99.90;;;;;;5024193;28;20469;-72
2021/04/25 06:58:17;;;;;;;21.20;18.10;;;7.20;99.90;;;;;;5018788;28;20498;-73
2021/04/25 07:00:43;;;;;;;22.00;18.47;;;7.30;99.90;;;;;;5019162;28;20514;-72
2021/04/25 07:03:10;;;;;;;20.67;18.77;;;7.10;99.90;;;;;;5020319;28;20480;-74
2021/04/25 07:05:38;;;;;;;19.93;18.00;;;7.20;99.90;;;;;;5023003;28;21308;-73
2021/04/25 07:08:05;;;;;;;19.67;18.07;;;7.50;99.90;;;;;;5022451;28;20549;-72
2021/04/25 07:10:32;;;;;;;19.17;17.77;;;7.60;99.90;;;;;;5023119;28;20985;-73
2021/04/25 07:12:58;;;;;;;22.23;19.93;;;7.80;99.90;;;;;;5015596;28;20935;-71
2021/04/25 07:15:25;;;;;;;21.47;19.50;;;7.90;99.90;;;;;;5023662;28;20460;-73
2021/04/25 07:17:52;;;;;;;22.93;20.67;;;8.00;99.90;;;;;;5023305;28;20494;-73
2021/04/25 07:20:19;;;;;;;21.50;19.50;;;7.90;99.90;;;;;;5017139;28;21005;-73
2021/04/25 07:22:46;;;;;;;22.50;20.63;;;8.10;99.90;;;;;;5013767;28;20464;-71
2021/04/25 07:25:14;;;;;;;20.80;19.00;;;8.30;99.90;;;;;;5012542;28;22617;-69
2021/04/25 07:27:40;;;;;;;19.47;17.87;;;8.20;99.90;;;;;;5021102;28;20479;-70
2021/04/25 07:30:09;;;;;;;21.50;19.80;;;8.10;99.90;;;;;;5016895;28;20480;-69
2021/04/25 07:32:36;;;;;;;24.73;20.90;;;8.20;99.90;;;;;;5020863;28;20492;-70
2021/04/25 07:35:03;;;;;;;23.50;21.30;;;8.00;99.90;;;;;;5020694;28;20464;-73
2021/04/25 07:37:30;;;;;;;22.40;20.57;;;8.30;99.90;;;;;;5021051;28;21006;-71
2021/04/25 07:39:57;;;;;;;24.43;22.17;;;8.20;99.90;;;;;;5022763;28;21009;-72
2021/04/25 07:42:24;;;;;;;23.33;21.43;;;8.20;99.90;;;;;;5025849;28;20464;-72
2021/04/25 07:44:50;;;;;;;23.93;22.00;;;8.50;99.90;;;;;;5013530;28;20461;-70
2021/04/25 07:47:16;;;;;;;23.23;20.93;;;8.90;99.90;;;;;;5012001;28;20475;-72
2021/04/25 07:49:43;;;;;;;22.10;19.87;;;8.90;99.90;;;;;;5017728;28;20475;-71
2021/04/25 07:52:10;;;;;;;21.10;19.30;;;8.50;99.90;;;;;;5015723;28;20527;-71
2021/04/25 07:54:36;;;;;;;22.50;20.37;;;8.60;99.90;;;;;;5023557;28;20946;-70
2021/04/25 07:57:04;;;;;;;21.30;19.17;;;8.80;99.90;;;;;;5023135;28;21030;-72
2021/04/25 07:59:31;;;;;;;24.30;22.00;;;8.50;99.90;;;;;;5014517;28;20802;-71
2021/04/25 08:01:58;;;;;;;26.70;24.27;;;8.20;99.90;;;;;;5021400;28;20482;-71
2021/04/25 08:04:24;;;;;;;24.00;21.90;;;8.40;99.90;;;;;;5020278;28;20860;-71
2021/04/25 08:06:52;;;;;;;27.93;25.07;;;8.50;99.90;;;;;;5022580;28;20465;-70
2021/04/25 08:09:18;;;;;;;25.43;23.23;;;8.50;99.90;;;;;;5021503;28;20921;-70
2021/04/25 08:11:45;;;;;;;28.73;23.70;;;8.40;99.90;;;;;;5012208;28;20467;-72
2021/04/25 08:14:15;;;;;;;27.27;24.00;;;8.60;99.90;;;;;;5020182;28;20459;-70
2021/04/25 08:16:41;;;;;;;39.50;27.27;;;8.80;99.90;;;;;;5018882;28;20472;-72
2021/04/25 08:19:08;;;;;;;28.90;26.33;;;9.20;99.90;;;;;;5022315;28;20511;-70
2021/04/25 08:21:34;;;;;;;29.30;26.37;;;8.90;99.90;;;;;;5014242;28;20464;-70
2021/04/25 08:24:01;;;;;;;28.87;25.83;;;8.70;99.90;;;;;;5021311;28;20475;-71
2021/04/25 08:26:27;;;;;;;25.23;22.83;;;9.30;99.90;;;;;;5025087;28;20466;-71
2021/04/25 08:28:53;;;;;;;30.73;27.87;;;9.10;99.90;;;;;;5012936;28;21022;-70
2021/04/25 08:31:21;;;;;;;32.50;29.30;;;8.90;99.90;;;;;;5017133;28;20475;-70
2021/04/25 08:33:47;;;;;;;30.03;26.97;;;9.40;99.90;;;;;;5021315;28;20484;-72
2021/04/25 08:36:15;;;;;;;27.87;25.33;;;8.90;99.90;;;;;;5016868;28;21173;-72
2021/04/25 08:38:42;;;;;;;27.63;24.90;;;9.30;99.90;;;;;;5022948;28;21022;-71
2021/04/25 08:41:10;;;;;;;27.00;24.30;;;9.80;99.90;;;;;;5009676;28;20645;-71
2021/04/25 08:43:38;;;;;;;26.20;23.50;;;10.20;99.90;;;;;;5009430;28;20465;-71
2021/04/25 08:46:05;;;;;;;32.57;29.53;;;10.30;99.90;;;;;;5012407;28;20471;-72
2021/04/25 08:48:32;;;;;;;26.07;23.57;;;9.80;99.90;;;;;;5014946;28;20473;-71
2021/04/25 08:50:59;;;;;;;26.20;23.47;;;9.90;99.90;;;;;;5012422;28;21374;-72
2021/04/25 08:53:25;;;;;;;25.07;22.87;;;10.20;99.90;;;;;;5016594;28;20467;-71
2021/04/25 08:55:52;;;;;;;32.83;29.63;;;10.10;99.90;;;;;;5019746;28;20469;-71
2021/04/25 08:58:20;;;;;;;32.20;28.03;;;9.80;99.90;;;;;;5019775;28;20501;-72
2021/04/25 09:00:46;;;;;;;34.23;29.70;;;9.70;99.90;;;;;;5009713;28;20468;-70
2021/04/25 09:03:14;;;;;;;32.83;29.23;;;9.60;99.90;;;;;;5020400;28;20562;-71
2021/04/25 09:05:43;;;;;;;35.10;31.57;;;9.80;99.90;;;;;;5010046;28;20500;-71
2021/04/25 09:08:10;;;;;;;32.63;29.33;;;10.10;99.80;;;;;;5014490;28;20852;-72
2021/04/25 09:10:38;;;;;;;30.77;27.33;;;10.50;99.70;;;;;;5019173;28;20464;-71
2021/04/25 09:13:16;;;;;;;30.97;26.10;;;10.30;99.10;;;;;;5019483;28;20453;-72
2021/04/25 09:15:43;;;;;;;28.93;26.13;;;11.20;98.40;;;;;;5012715;28;21057;-71
2021/04/25 09:18:10;;;;;;;30.83;27.53;;;11.00;97.90;;;;;;5019334;28;21048;-70
2021/04/25 09:20:44;;;;;;;30.07;27.13;;;11.10;98.70;;;;;;5018910;28;20464;-71
2021/04/25 09:23:12;;;;;;;31.60;28.13;;;11.30;97.60;;;;;;5016692;28;20463;-71
2021/04/25 09:25:39;;;;;;;32.63;29.00;;;11.10;98.00;;;;;;5016793;28;20464;-71
2021/04/25 09:28:11;;;;;;;32.10;29.00;;;11.90;97.40;;;;;;5019236;28;20530;-71
2021/04/25 09:30:37;;;;;;;32.07;29.00;;;12.50;96.20;;;;;;5007678;28;20469;-71
2021/04/25 09:33:06;;;;;;;29.67;26.77;;;12.50;95.00;;;;;;5018985;28;20492;-71
2021/04/25 09:35:33;;;;;;;29.03;26.00;;;13.20;93.80;;;;;;5015877;28;20984;-72
2021/04/25 09:38:10;;;;;;;29.67;27.03;;;13.30;92.30;;;;;;5015754;28;20497;-71
2021/04/25 09:40:40;;;;;;;30.03;27.17;;;13.70;91.90;;;;;;5015209;28;20496;-73
2021/04/25 09:43:09;;;;;;;30.57;27.27;;;14.00;91.20;;;;;;5017989;28;20482;-72
2021/04/25 09:45:37;;;;;;;30.27;27.57;;;14.40;90.10;;;;;;5012382;28;20467;-71
2021/04/25 09:48:20;;;;;;;28.97;26.63;;;14.20;89.80;;;;;;5014292;28;21034;-72
2021/04/25 09:51:11;;;;;;;25.10;22.93;;;14.90;89.70;;;;;;5018473;28;20960;-72
2021/04/25 09:53:40;;;;;;;26.27;24.07;;;14.90;85.80;;;;;;5014237;28;20669;-71
2021/04/25 09:56:08;;;;;;;26.83;24.40;;;14.20;85.90;;;;;;5018328;28;20465;-72
2021/04/25 09:58:35;;;;;;;25.30;22.90;;;12.70;88.10;;;;;;5014662;28;21423;-71
2021/04/25 10:01:01;;;;;;;26.03;24.03;;;11.80;88.30;;;;;;5015355;28;20460;-71
2021/04/25 10:03:35;;;;;;;27.90;25.20;;;12.70;89.70;;;;;;5016718;28;20464;-72
2021/04/25 10:06:04;;;;;;;23.80;22.10;;;12.60;90.30;;;;;;5019092;28;20597;-72
2021/04/25 10:08:31;;;;;;;25.13;22.90;;;13.60;88.50;;;;;;5019056;28;20963;-72
2021/04/25 10:11:01;;;;;;;22.77;20.90;;;14.10;85.40;;;;;;5018945;28;22434;-72
2021/04/25 10:13:28;;;;;;;22.17;20.13;;;15.00;82.70;;;;;;5015888;28;20465;-72
2021/04/25 10:15:54;;;;;;;22.70;20.53;;;14.70;79.50;;;;;;5020673;28;20479;-72
2021/04/25 10:18:21;;;;;;;22.80;20.67;;;14.80;81.10;;;;;;5015124;28;20878;-72
2021/04/25 10:20:50;;;;;;;27.60;25.40;;;15.20;79.40;;;;;;5013702;28;20462;-72
2021/04/25 10:23:17;;;;;;;23.33;21.60;;;15.30;77.80;;;;;;5014573;28;20469;-72
2021/04/25 10:25:44;;;;;;;21.30;19.60;;;15.90;78.80;;;;;;5010707;28;20484;-72
2021/04/25 10:28:15;;;;;;;23.20;21.00;;;15.70;76.60;;;;;;5018166;28;20520;-71
2021/04/25 10:30:44;;;;;;;23.43;21.23;;;14.70;78.70;;;;;;5020129;28;20567;-72
2021/04/25 10:33:10;;;;;;;21.10;18.97;;;14.90;76.50;;;;;;5017907;28;20492;-72
2021/04/25 10:35:36;;;;;;;24.43;21.73;;;15.60;76.80;;;;;;5017637;28;20483;-72
2021/04/25 10:38:05;;;;;;;31.60;28.57;;;16.10;74.50;;;;;;5008427;28;20490;-72
2021/04/25 10:40:34;;;;;;;22.80;21.07;;;15.20;74.40;;;;;;5012505;28;20461;-71
2021/04/25 10:43:05;;;;;;;24.20;22.00;;;14.30;76.00;;;;;;5019911;28;20467;-71
2021/04/25 10:45:35;;;;;;;22.53;20.57;;;13.70;77.60;;;;;;5017658;28;20464;-71
2021/04/25 10:48:30;;;;;;;24.63;22.60;;;13.50;78.90;;;;;;5014703;28;20465;-71
2021/04/25 10:51:04;;;;;;;23.57;21.30;;;13.50;79.60;;;;;;5013842;28;21037;-71
2021/04/25 10:53:36;;;;;;;20.23;18.63;;;14.00;78.40;;;;;;5009409;28;20462;-71
2021/04/25 10:56:33;;;;;;;18.27;17.07;;;14.40;76.70;;;;;;5014986;28;20559;-71
2021/04/25 10:59:26;;;;;;;23.97;21.80;;;14.80;76.00;;;;;;5017280;28;20760;-71
2021/04/25 11:01:54;;;;;;;17.80;16.50;;;15.20;75.20;;;;;;5011614;28;20476;-71
2021/04/25 11:04:59;;;;;;;19.57;17.70;;;15.30;74.00;;;;;;5017718;28;20511;-71
2021/04/25 11:07:45;;;;;;;18.37;16.70;;;15.20;72.70;;;;;;5013013;28;20465;-71
2021/04/25 11:10:16;;;;;;;25.23;22.50;;;16.00;73.50;;;;;;5018784;28;20464;-71
2021/04/25 11:12:47;;;;;;;19.13;17.60;;;16.30;71.90;;;;;;5014815;28;20970;-71
2021/04/25 11:15:49;;;;;;;20.37;18.77;;;16.80;73.20;;;;;;5011123;28;20462;-71
2021/04/25 11:18:42;;;;;;;19.43;17.83;;;17.40;72.20;;;;;;5002163;28;20496;-71
2021/04/25 11:21:46;;;;;;;17.17;16.00;;;17.30;68.50;;;;;;5010956;28;20473;-71
2021/04/25 11:24:32;;;;;;;15.70;14.70;;;18.10;68.70;;;;;;5009435;28;20537;-70
2021/04/25 11:27:00;;;;;;;17.83;16.03;;;17.10;65.90;;;;;;5012860;28;20559;-71
2021/04/25 11:29:52;;;;;;;18.13;16.30;;;16.60;67.80;;;;;;5010579;28;20464;-71
2021/04/25 11:32:27;;;;;;;17.07;15.97;;;16.60;65.90;;;;;;5008431;28;21024;-71
2021/04/25 11:35:01;;;;;;;18.60;17.10;;;17.30;67.30;;;;;;5014566;28;20467;-71
2021/04/25 11:37:28;;;;;;;16.97;15.97;;;17.50;64.20;;;;;;5009962;28;20843;-71
2021/04/25 11:39:56;;;;;;;18.27;16.97;;;16.90;63.70;;;;;;5013696;28;20499;-71
2021/04/25 11:42:28;;;;;;;17.77;16.50;;;16.50;65.20;;;;;;5012806;28;20476;-71
2021/04/25 11:44:56;;;;;;;16.13;14.80;;;17.20;65.50;;;;;;5016316;28;20473;-71
2021/04/25 11:47:24;;;;;;;18.90;17.20;;;17.10;66.80;;;;;;5014036;28;20462;-71
2021/04/25 11:49:52;;;;;;;19.43;17.50;;;17.60;64.90;;;;;;5015914;28;20466;-71
2021/04/25 11:52:22;;;;;;;18.30;16.83;;;17.00;64.50;;;;;;5018609;28;20487;-71
2021/04/25 11:54:58;;;;;;;17.47;15.90;;;17.60;66.20;;;;;;5016665;28;20574;-72
2021/04/25 11:57:26;;;;;;;16.93;15.40;;;18.80;64.40;;;;;;5020815;28;20465;-71
2021/04/25 11:59:54;;;;;;;16.77;15.47;;;18.10;61.30;;;;;;5016322;28;20526;-71
2021/04/25 12:02:21;;;;;;;16.87;15.57;;;17.70;62.30;;;;;;5015967;28;20460;-72
2021/04/25 12:04:48;;;;;;;17.80;16.40;;;17.50;62.10;;;;;;5012250;28;20564;-71
2021/04/25 12:10:22;;;;;;;16.50;15.27;;;17.40;63.40;;;;;;5062012;27;720428;-72
2021/04/25 12:13:00;;;;;;;17.17;15.50;;;18.00;60.40;;;;;;5074687;28;20461;-72
2021/04/25 12:15:27;;;;;;;16.63;15.10;;;18.70;59.80;;;;;;5073970;28;20466;-72
2021/04/25 12:17:54;;;;;;;16.70;15.60;;;19.00;59.10;;;;;;5075598;28;20450;-72
2021/04/25 12:20:21;;;;;;;17.50;16.17;;;19.50;59.00;;;;;;5076679;28;20466;-72
2021/04/25 12:22:48;;;;;;;15.70;14.63;;;18.80;58.00;;;;;;5072478;28;20558;-72
2021/04/25 12:25:16;;;;;;;17.67;16.03;;;18.80;61.50;;;;;;5080407;28;20462;-72
2021/04/25 12:27:51;;;;;;;16.63;15.33;;;19.80;58.50;;;;;;5072848;28;20459;-72
2021/04/25 12:30:19;;;;;;;17.23;15.80;;;19.70;56.70;;;;;;5072679;28;20469;-72
2021/04/25 12:32:45;;;;;;;17.70;15.50;;;19.70;56.70;;;;;;5071350;28;20467;-72
2021/04/25 12:35:12;;;;;;;17.80;16.20;;;19.60;56.80;;;;;;5077565;28;20466;-72
2021/04/25 12:37:40;;;;;;;17.03;15.80;;;19.00;57.30;;;;;;5070896;28;20483;-72
2021/04/25 12:40:25;;;;;;;16.80;15.10;;;19.60;56.90;;;;;;5059476;28;20517;-72
2021/04/25 12:43:06;;;;;;;16.00;14.80;;;19.80;56.00;;;;;;5056996;28;20459;-72